首页
METAR-TAF:

METAR-TAF

机场 :

Uden, 荷兰

纬度: 51-39N, 经度: 005-42E, 海拔: 22米

当前天气观测

该预报发布于5分钟前的19:25 UTC
风速15节,风向西南,在西之间变化
温度 8°C
湿度 71%
气压 1017 hPa
能见度10公里或以上
少量云层高于2600英尺
散云层高于2900英尺
阴天层高于3300英尺
少量云层高于3000英尺
散云层高于12000英尺

METAR: EHVK 181925Z AUTO 21014KT 180V260 9999 FEW026 SCT029 OVC033 08/03 Q1017 BLU 23015KT 9999 FEW030 SCT120

时间: 20:30 (19:30 UTC)

预报

该预报发布于2小时和8分钟前的17:22 UTC
预报有效从18日的 18点(UTC)到 19日的 06点(UTC)
风速15节,风向西转西南,有时为25节阵风
能见度10公里或以上
散云层高于2500英尺
多云层高于4000英尺
短暂存在
从 18日的 18点(UTC)到 18日的 22点(UTC)
风速18节,风向西转西南,有时为30节阵风
少量云层高于1800英尺, 积雨云.
多云层高于2000英尺
短暂存在
从 18日的 21点(UTC)到 19日的 03点(UTC)
能見度: 4000
少量云层高于1200英尺
散云层高于1800英尺, 积雨云.
多云层高于2000英尺
小雨, 小阵雨
短暂存在
从 18日的 22点(UTC)到 19日的 03点(UTC)
风速20节,风向西转西南,有时为38节阵风
能見度: 2500
散云层高于1200英尺
多云层高于1500英尺, 积雨云.
雷暴, 雨, 小冰雹或雪球
成为
从 19日的 00点(UTC)到 19日的 03点(UTC)
风速12节,风向西

TAF: EHVK 181722Z 1818/1906 24015G25KT 9999 SCT025 BKN040 TEMPO 1818/1822 24018G30KT FEW018CB BKN020 TEMPO 1821/1903 4000 -RA -SHRA FEW012 SCT018CB BKN020 TEMPO 1822/1903 24020G38KT 2500 TSRAGS SCT012 BKN015CB BECMG 1900/1903 26012KT

超过4000个机场的气象观测和天气预报(METAR&TAF报告)。

可查询的气象台以黄色和红色小点在地图上表示。

将鼠标移到小点上方,可查看气象台名称。

然后点击查看天气观测和预报。

如需切换地图:点击带黑十字的绿色按钮放大地图;点击带横线的绿色按钮缩小地图;或者点击绿色箭头查看邻近地区的地图。


METAR-TAF: